sensor_id;sensor_type;location;lat;lon;timestamp;pressure;altitude;pressure_sealevel;temperature;humidity
66396;BME280;53207;51.378;-1.342;2023-04-07T00:01:39;100565.17;;;21.01;34.92
66396;BME280;53207;51.378;-1.342;2023-04-07T00:04:06;100565.44;;;20.99;34.87
66396;BME280;53207;51.378;-1.342;2023-04-07T00:06:34;100566.39;;;20.54;34.83
66396;BME280;53207;51.378;-1.342;2023-04-07T00:09:01;100569.90;;;20.94;34.86
66396;BME280;53207;51.378;-1.342;2023-04-07T00:11:28;100577.73;;;20.70;34.85
66396;BME280;53207;51.378;-1.342;2023-04-07T00:13:56;100579.93;;;20.69;34.84
66396;BME280;53207;51.378;-1.342;2023-04-07T00:16:23;100583.67;;;20.88;34.83
66396;BME280;53207;51.378;-1.342;2023-04-07T00:18:50;100584.15;;;20.85;34.82
66396;BME280;53207;51.378;-1.342;2023-04-07T00:21:17;100582.80;;;20.79;34.87
66396;BME280;53207;51.378;-1.342;2023-04-07T00:23:45;100583.83;;;20.81;34.79
66396;BME280;53207;51.378;-1.342;2023-04-07T00:26:12;100586.07;;;20.78;34.80
66396;BME280;53207;51.378;-1.342;2023-04-07T00:28:39;100585.90;;;20.76;34.79
66396;BME280;53207;51.378;-1.342;2023-04-07T00:31:07;100582.79;;;20.80;34.70
66396;BME280;53207;51.378;-1.342;2023-04-07T00:33:34;100579.94;;;20.73;34.75
66396;BME280;53207;51.378;-1.342;2023-04-07T00:36:01;100579.44;;;20.74;34.69
66396;BME280;53207;51.378;-1.342;2023-04-07T00:38:28;100582.93;;;20.66;34.74
66396;BME280;53207;51.378;-1.342;2023-04-07T00:40:57;100584.97;;;20.69;34.69
66396;BME280;53207;51.378;-1.342;2023-04-07T00:43:25;100586.98;;;20.69;34.63
66396;BME280;53207;51.378;-1.342;2023-04-07T00:45:52;100584.57;;;20.63;34.68
66396;BME280;53207;51.378;-1.342;2023-04-07T00:48:20;100580.13;;;20.61;34.68
66396;BME280;53207;51.378;-1.342;2023-04-07T00:50:48;100576.90;;;20.57;34.71
66396;BME280;53207;51.378;-1.342;2023-04-07T00:53:15;100578.89;;;20.54;34.70
66396;BME280;53207;51.378;-1.342;2023-04-07T00:55:42;100580.30;;;20.85;34.61
66396;BME280;53207;51.378;-1.342;2023-04-07T00:58:09;100585.59;;;20.30;34.65
66396;BME280;53207;51.378;-1.342;2023-04-07T01:00:41;100583.79;;;20.56;34.58
66396;BME280;53207;51.378;-1.342;2023-04-07T01:03:18;100583.32;;;20.55;34.55
66396;BME280;53207;51.378;-1.342;2023-04-07T01:05:52;100588.60;;;20.52;34.56
66396;BME280;53207;51.378;-1.342;2023-04-07T01:08:24;100585.51;;;20.50;34.55
66396;BME280;53207;51.378;-1.342;2023-04-07T01:10:58;100581.30;;;20.48;34.55
66396;BME280;53207;51.378;-1.342;2023-04-07T01:13:29;100578.40;;;20.41;34.60
66396;BME280;53207;51.378;-1.342;2023-04-07T01:16:01;100573.73;;;20.46;34.51
66396;BME280;53207;51.378;-1.342;2023-04-07T01:18:31;100574.63;;;20.45;34.50
66396;BME280;53207;51.378;-1.342;2023-04-07T01:21:02;100577.05;;;20.45;34.46
66396;BME280;53207;51.378;-1.342;2023-04-07T01:24:25;100581.51;;;20.69;34.47
66396;BME280;53207;51.378;-1.342;2023-04-07T01:26:57;100583.50;;;20.40;34.46
66396;BME280;53207;51.378;-1.342;2023-04-07T01:29:32;100583.66;;;20.41;34.42
66396;BME280;53207;51.378;-1.342;2023-04-07T01:32:03;100579.82;;;20.21;34.37
66396;BME280;53207;51.378;-1.342;2023-04-07T01:34:31;100580.12;;;20.40;34.39
66396;BME280;53207;51.378;-1.342;2023-04-07T01:37:00;100579.64;;;20.36;34.41
66396;BME280;53207;51.378;-1.342;2023-04-07T01:39:28;100578.32;;;20.33;34.40
66396;BME280;53207;51.378;-1.342;2023-04-07T01:41:57;100575.25;;;20.31;34.38
66396;BME280;53207;51.378;-1.342;2023-04-07T01:44:25;100574.83;;;20.28;34.40
66396;BME280;53207;51.378;-1.342;2023-04-07T01:46:54;100575.05;;;20.31;34.33
66396;BME280;53207;51.378;-1.342;2023-04-07T01:49:24;100575.67;;;20.28;34.36
66396;BME280;53207;51.378;-1.342;2023-04-07T01:51:52;100575.73;;;20.23;34.41
66396;BME280;53207;51.378;-1.342;2023-04-07T01:54:20;100580.39;;;20.50;34.40
66396;BME280;53207;51.378;-1.342;2023-04-07T01:56:47;100581.58;;;20.23;34.38
66396;BME280;53207;51.378;-1.342;2023-04-07T01:59:14;100581.35;;;20.22;34.40
66396;BME280;53207;51.378;-1.342;2023-04-07T02:01:41;100582.43;;;20.21;34.37
66396;BME280;53207;51.378;-1.342;2023-04-07T02:04:13;100579.85;;;20.43;34.41
66396;BME280;53207;51.378;-1.342;2023-04-07T02:06:45;100580.65;;;20.19;34.34
66396;BME280;53207;51.378;-1.342;2023-04-07T02:09:15;100581.88;;;20.18;34.32
66396;BME280;53207;51.378;-1.342;2023-04-07T02:11:43;100581.36;;;20.44;34.32
66396;BME280;53207;51.378;-1.342;2023-04-07T02:14:10;100580.11;;;20.17;34.29
66396;BME280;53207;51.378;-1.342;2023-04-07T02:16:40;100578.58;;;20.15;34.27
66396;BME280;53207;51.378;-1.342;2023-04-07T02:19:08;100582.53;;;20.41;34.26
66396;BME280;53207;51.378;-1.342;2023-04-07T02:21:36;100582.96;;;20.08;34.30
66396;BME280;53207;51.378;-1.342;2023-04-07T02:24:06;100584.08;;;20.07;34.30
66396;BME280;53207;51.378;-1.342;2023-04-07T02:26:34;100582.73;;;20.08;34.25
66396;BME280;53207;51.378;-1.342;2023-04-07T02:29:02;100584.77;;;20.04;34.26
66396;BME280;53207;51.378;-1.342;2023-04-07T02:31:29;100583.02;;;20.51;34.24
66396;BME280;53207;51.378;-1.342;2023-04-07T02:33:56;100585.20;;;19.98;34.28
66396;BME280;53207;51.378;-1.342;2023-04-07T02:36:24;100585.72;;;20.25;34.24
66396;BME280;53207;51.378;-1.342;2023-04-07T02:38:51;100586.44;;;19.98;34.22
66396;BME280;53207;51.378;-1.342;2023-04-07T02:41:18;100586.19;;;20.22;34.22
66396;BME280;53207;51.378;-1.342;2023-04-07T02:43:46;100588.39;;;20.19;34.22
66396;BME280;53207;51.378;-1.342;2023-04-07T02:46:13;100587.33;;;20.24;34.13
66396;BME280;53207;51.378;-1.342;2023-04-07T02:48:40;100588.46;;;20.24;34.09
66396;BME280;53207;51.378;-1.342;2023-04-07T02:51:07;100587.60;;;20.49;34.02
66396;BME280;53207;51.378;-1.342;2023-04-07T02:53:35;100582.36;;;19.98;34.02
66396;BME280;53207;51.378;-1.342;2023-04-07T02:56:02;100581.90;;;20.24;34.00
66396;BME280;53207;51.378;-1.342;2023-04-07T02:58:29;100586.10;;;20.20;34.00
66396;BME280;53207;51.378;-1.342;2023-04-07T03:00:57;100588.59;;;20.23;33.93
66396;BME280;53207;51.378;-1.342;2023-04-07T03:03:24;100586.51;;;19.92;33.95
66396;BME280;53207;51.378;-1.342;2023-04-07T03:05:51;100586.04;;;19.89;33.95
66396;BME280;53207;51.378;-1.342;2023-04-07T03:08:19;100589.05;;;20.37;33.94
66396;BME280;53207;51.378;-1.342;2023-04-07T03:10:46;100586.05;;;20.09;33.95
66396;BME280;53207;51.378;-1.342;2023-04-07T03:13:13;100586.34;;;20.31;33.93
66396;BME280;53207;51.378;-1.342;2023-04-07T03:15:41;100586.36;;;20.00;33.97
66396;BME280;53207;51.378;-1.342;2023-04-07T03:18:08;100587.98;;;19.99;33.95
66396;BME280;53207;51.378;-1.342;2023-04-07T03:20:35;100590.13;;;20.03;33.89
66396;BME280;53207;51.378;-1.342;2023-04-07T03:23:02;100587.90;;;19.74;33.88
66396;BME280;53207;51.378;-1.342;2023-04-07T03:25:30;100586.49;;;19.99;33.88
66396;BME280;53207;51.378;-1.342;2023-04-07T03:27:57;100587.02;;;19.97;33.88
66396;BME280;53207;51.378;-1.342;2023-04-07T03:30:24;100587.61;;;19.98;33.82
66396;BME280;53207;51.378;-1.342;2023-04-07T03:32:52;100587.85;;;19.98;33.81
66396;BME280;53207;51.378;-1.342;2023-04-07T03:35:19;100587.16;;;20.25;33.72
66396;BME280;53207;51.378;-1.342;2023-04-07T03:37:46;100585.36;;;19.96;33.77
66396;BME280;53207;51.378;-1.342;2023-04-07T03:40:14;100584.17;;;19.99;33.70
66396;BME280;53207;51.378;-1.342;2023-04-07T03:42:41;100585.31;;;19.98;33.70
66396;BME280;53207;51.378;-1.342;2023-04-07T03:45:09;100583.21;;;19.94;33.71
66396;BME280;53207;51.378;-1.342;2023-04-07T03:47:36;100584.82;;;19.67;33.70
66396;BME280;53207;51.378;-1.342;2023-04-07T03:50:04;100581.53;;;19.90;33.71
66396;BME280;53207;51.378;-1.342;2023-04-07T03:52:32;100582.03;;;20.10;33.71
66396;BME280;53207;51.378;-1.342;2023-04-07T03:54:59;100584.94;;;19.58;33.70
66396;BME280;53207;51.378;-1.342;2023-04-07T03:57:26;100586.36;;;19.58;33.69
66396;BME280;53207;51.378;-1.342;2023-04-07T03:59:54;100591.07;;;19.56;33.68
66396;BME280;53207;51.378;-1.342;2023-04-07T04:02:21;100593.40;;;19.80;33.68
66396;BME280;53207;51.378;-1.342;2023-04-07T04:04:48;100595.99;;;19.81;33.64
66396;BME280;53207;51.378;-1.342;2023-04-07T04:07:15;100599.87;;;19.99;33.65
66396;BME280;53207;51.378;-1.342;2023-04-07T04:09:43;100604.11;;;19.74;33.65
66396;BME280;53207;51.378;-1.342;2023-04-07T04:12:10;100605.72;;;19.69;33.68
66396;BME280;53207;51.378;-1.342;2023-04-07T04:14:37;100605.14;;;19.71;33.65
66396;BME280;53207;51.378;-1.342;2023-04-07T04:17:04;100603.75;;;19.66;33.66
66396;BME280;53207;51.378;-1.342;2023-04-07T04:19:32;100600.54;;;19.65;33.64
66396;BME280;53207;51.378;-1.342;2023-04-07T04:21:59;100601.78;;;19.60;33.66
66396;BME280;53207;51.378;-1.342;2023-04-07T04:24:26;100604.28;;;19.60;33.64
66396;BME280;53207;51.378;-1.342;2023-04-07T04:26:54;100602.07;;;19.60;33.61
66396;BME280;53207;51.378;-1.342;2023-04-07T04:29:21;100600.42;;;19.80;33.60
66396;BME280;53207;51.378;-1.342;2023-04-07T04:31:48;100602.08;;;19.76;33.60
66396;BME280;53207;51.378;-1.342;2023-04-07T04:34:16;100605.23;;;19.73;33.61
66396;BME280;53207;51.378;-1.342;2023-04-07T04:36:43;100607.23;;;19.71;33.62
66396;BME280;53207;51.378;-1.342;2023-04-07T04:39:10;100611.64;;;19.70;33.58
66396;BME280;53207;51.378;-1.342;2023-04-07T04:41:37;100610.78;;;19.71;33.56
66396;BME280;53207;51.378;-1.342;2023-04-07T04:44:05;100614.10;;;19.70;33.54
66396;BME280;53207;51.378;-1.342;2023-04-07T04:46:32;100615.58;;;19.45;33.55
66396;BME280;53207;51.378;-1.342;2023-04-07T04:48:59;100621.93;;;19.62;33.58
66396;BME280;53207;51.378;-1.342;2023-04-07T04:51:27;100624.98;;;19.63;33.56
66396;BME280;53207;51.378;-1.342;2023-04-07T04:53:54;100627.15;;;19.64;33.50
66396;BME280;53207;51.378;-1.342;2023-04-07T04:56:21;100626.55;;;19.41;33.50
66396;BME280;53207;51.378;-1.342;2023-04-07T04:58:49;100626.80;;;19.36;33.52
66396;BME280;53207;51.378;-1.342;2023-04-07T05:01:16;100629.06;;;19.59;33.49
66396;BME280;53207;51.378;-1.342;2023-04-07T05:03:43;100625.71;;;19.56;33.49
66396;BME280;53207;51.378;-1.342;2023-04-07T05:06:10;100626.40;;;19.56;33.46
66396;BME280;53207;51.378;-1.342;2023-04-07T05:08:38;100629.13;;;19.55;33.43
66396;BME280;53207;51.378;-1.342;2023-04-07T05:11:05;100631.09;;;19.34;33.39
66396;BME280;53207;51.378;-1.342;2023-04-07T05:13:32;100631.67;;;19.34;33.37
66396;BME280;53207;51.378;-1.342;2023-04-07T05:16:00;100630.97;;;19.49;33.43
66396;BME280;53207;51.378;-1.342;2023-04-07T05:18:27;100631.45;;;19.52;33.39
66396;BME280;53207;51.378;-1.342;2023-04-07T05:20:55;100630.98;;;19.44;33.45
66396;BME280;53207;51.378;-1.342;2023-04-07T05:23:22;100632.34;;;19.48;33.37
66396;BME280;53207;51.378;-1.342;2023-04-07T05:25:50;100638.28;;;19.44;33.39
66396;BME280;53207;51.378;-1.342;2023-04-07T05:28:17;100639.49;;;19.41;33.40
66396;BME280;53207;51.378;-1.342;2023-04-07T05:30:44;100643.52;;;19.41;33.39
66396;BME280;53207;51.378;-1.342;2023-04-07T05:33:12;100646.61;;;19.40;33.37
66396;BME280;53207;51.378;-1.342;2023-04-07T05:35:39;100648.96;;;19.39;33.37
66396;BME280;53207;51.378;-1.342;2023-04-07T05:38:06;100650.78;;;19.35;33.41
66396;BME280;53207;51.378;-1.342;2023-04-07T05:40:34;100650.83;;;19.31;33.44
66396;BME280;53207;51.378;-1.342;2023-04-07T05:43:01;100655.95;;;19.29;33.44
66396;BME280;53207;51.378;-1.342;2023-04-07T05:45:28;100663.52;;;19.25;33.47
66396;BME280;53207;51.378;-1.342;2023-04-07T05:47:56;100670.60;;;19.27;33.44
66396;BME280;53207;51.378;-1.342;2023-04-07T05:50:23;100678.53;;;19.28;33.40
66396;BME280;53207;51.378;-1.342;2023-04-07T05:52:50;100678.80;;;18.79;33.39
66396;BME280;53207;51.378;-1.342;2023-04-07T05:55:18;100678.21;;;19.27;33.36
66396;BME280;53207;51.378;-1.342;2023-04-07T05:57:45;100678.26;;;19.26;33.35
66396;BME280;53207;51.378;-1.342;2023-04-07T06:00:13;100681.49;;;19.23;33.38
66396;BME280;53207;51.378;-1.342;2023-04-07T06:02:40;100680.06;;;19.20;33.41
66396;BME280;53207;51.378;-1.342;2023-04-07T06:05:08;100685.39;;;19.17;33.44
66396;BME280;53207;51.378;-1.342;2023-04-07T06:07:35;100689.32;;;19.16;33.44
66396;BME280;53207;51.378;-1.342;2023-04-07T06:10:03;100690.27;;;19.11;33.49
66396;BME280;53207;51.378;-1.342;2023-04-07T06:12:30;100688.43;;;19.10;33.51
66396;BME280;53207;51.378;-1.342;2023-04-07T06:14:57;100694.17;;;19.13;33.46
66396;BME280;53207;51.378;-1.342;2023-04-07T06:17:24;100698.29;;;19.12;33.46
66396;BME280;53207;51.378;-1.342;2023-04-07T06:19:52;100701.46;;;19.12;33.47
66396;BME280;53207;51.378;-1.342;2023-04-07T06:22:19;100704.83;;;19.14;33.44
66396;BME280;53207;51.378;-1.342;2023-04-07T06:24:46;100702.87;;;19.11;33.49
66396;BME280;53207;51.378;-1.342;2023-04-07T06:27:13;100710.59;;;19.09;33.53
66396;BME280;53207;51.378;-1.342;2023-04-07T06:29:41;100715.00;;;19.09;33.59
66396;BME280;53207;51.378;-1.342;2023-04-07T06:32:08;100716.04;;;19.37;33.62
66396;BME280;53207;51.378;-1.342;2023-04-07T06:34:35;100719.71;;;19.09;33.68
66396;BME280;53207;51.378;-1.342;2023-04-07T06:37:03;100720.72;;;19.08;33.70
66396;BME280;53207;51.378;-1.342;2023-04-07T06:39:30;100717.27;;;19.11;33.72
66396;BME280;53207;51.378;-1.342;2023-04-07T06:41:57;100718.20;;;19.21;33.61
66396;BME280;53207;51.378;-1.342;2023-04-07T06:44:25;100719.59;;;19.23;33.59
66396;BME280;53207;51.378;-1.342;2023-04-07T06:46:52;100721.48;;;19.35;33.68
66396;BME280;53207;51.378;-1.342;2023-04-07T06:49:19;100721.21;;;19.54;33.94
66396;BME280;53207;51.378;-1.342;2023-04-07T06:51:47;100725.33;;;19.71;33.99
66396;BME280;53207;51.378;-1.342;2023-04-07T06:54:14;100726.21;;;19.83;34.14
66396;BME280;53207;51.378;-1.342;2023-04-07T06:56:42;100729.20;;;19.78;34.15
66396;BME280;53207;51.378;-1.342;2023-04-07T06:59:09;100730.30;;;19.93;34.15
66396;BME280;53207;51.378;-1.342;2023-04-07T07:01:37;100730.46;;;19.84;34.13
66396;BME280;53207;51.378;-1.342;2023-04-07T07:04:04;100730.72;;;20.02;34.04
66396;BME280;53207;51.378;-1.342;2023-04-07T07:06:31;100727.08;;;20.13;34.02
66396;BME280;53207;51.378;-1.342;2023-04-07T07:08:59;100726.10;;;20.33;33.85
66396;BME280;53207;51.378;-1.342;2023-04-07T07:11:27;100729.23;;;20.45;33.76
66396;BME280;53207;51.378;-1.342;2023-04-07T07:13:54;100732.59;;;20.62;33.60
66396;BME280;53207;51.378;-1.342;2023-04-07T07:16:21;100736.78;;;20.68;33.54
66396;BME280;53207;51.378;-1.342;2023-04-07T07:18:49;100742.24;;;20.78;33.46
66396;BME280;53207;51.378;-1.342;2023-04-07T07:21:17;100740.76;;;20.70;33.30
66396;BME280;53207;51.378;-1.342;2023-04-07T07:23:44;100738.51;;;20.81;33.24
66396;BME280;53207;51.378;-1.342;2023-04-07T07:26:11;100742.40;;;21.14;33.04
66396;BME280;53207;51.378;-1.342;2023-04-07T07:28:39;100745.14;;;21.26;32.84
66396;BME280;53207;51.378;-1.342;2023-04-07T07:31:09;100749.73;;;21.08;32.65
66396;BME280;53207;51.378;-1.342;2023-04-07T07:33:36;100753.99;;;20.89;32.47
66396;BME280;53207;51.378;-1.342;2023-04-07T07:36:03;100759.57;;;21.36;32.40
66396;BME280;53207;51.378;-1.342;2023-04-07T07:38:30;100761.71;;;20.96;32.38
66396;BME280;53207;51.378;-1.342;2023-04-07T07:40:58;100761.65;;;20.91;32.25
66396;BME280;53207;51.378;-1.342;2023-04-07T07:43:25;100763.65;;;20.94;32.21
66396;BME280;53207;51.378;-1.342;2023-04-07T07:45:52;100768.56;;;20.99;32.20
66396;BME280;53207;51.378;-1.342;2023-04-07T07:48:20;100767.64;;;21.03;32.16
66396;BME280;53207;51.378;-1.342;2023-04-07T07:50:47;100766.35;;;21.09;32.11
66396;BME280;53207;51.378;-1.342;2023-04-07T07:53:14;100766.04;;;21.54;32.14
66396;BME280;53207;51.378;-1.342;2023-04-07T07:55:41;100762.36;;;21.09;32.29
66396;BME280;53207;51.378;-1.342;2023-04-07T07:58:09;100763.66;;;21.50;32.63
66396;BME280;53207;51.378;-1.342;2023-04-07T08:00:36;100768.08;;;21.29;32.71
66396;BME280;53207;51.378;-1.342;2023-04-07T08:03:03;100773.20;;;21.10;32.81
66396;BME280;53207;51.378;-1.342;2023-04-07T08:05:31;100774.68;;;21.04;33.04
66396;BME280;53207;51.378;-1.342;2023-04-07T08:07:58;100776.09;;;21.06;33.06
66396;BME280;53207;51.378;-1.342;2023-04-07T08:10:25;100777.56;;;21.24;33.17
66396;BME280;53207;51.378;-1.342;2023-04-07T08:12:52;100776.34;;;21.05;33.06
66396;BME280;53207;51.378;-1.342;2023-04-07T08:15:20;100775.17;;;21.26;33.04
66396;BME280;53207;51.378;-1.342;2023-04-07T08:17:47;100773.51;;;21.04;33.07
66396;BME280;53207;51.378;-1.342;2023-04-07T08:20:14;100776.00;;;21.27;33.01
66396;BME280;53207;51.378;-1.342;2023-04-07T08:22:42;100778.65;;;21.06;33.06
66396;BME280;53207;51.378;-1.342;2023-04-07T08:25:09;100782.40;;;21.09;33.00
66396;BME280;53207;51.378;-1.342;2023-04-07T08:27:36;100781.67;;;21.10;32.98
66396;BME280;53207;51.378;-1.342;2023-04-07T08:30:05;100783.75;;;21.58;32.91
66396;BME280;53207;51.378;-1.342;2023-04-07T08:32:34;100784.15;;;21.15;32.95
66396;BME280;53207;51.378;-1.342;2023-04-07T08:35:02;100785.47;;;21.17;32.90
66396;BME280;53207;51.378;-1.342;2023-04-07T08:37:30;100785.38;;;21.17;32.89
66396;BME280;53207;51.378;-1.342;2023-04-07T08:39:57;100788.20;;;21.17;32.87
66396;BME280;53207;51.378;-1.342;2023-04-07T08:42:27;100787.37;;;21.14;32.85
66396;BME280;53207;51.378;-1.342;2023-04-07T08:44:56;100789.31;;;21.43;32.79
66396;BME280;53207;51.378;-1.342;2023-04-07T08:47:24;100791.16;;;21.44;32.75
66396;BME280;53207;51.378;-1.342;2023-04-07T08:49:53;100791.00;;;21.26;32.67
66396;BME280;53207;51.378;-1.342;2023-04-07T08:52:28;100786.94;;;21.28;32.60
66396;BME280;53207;51.378;-1.342;2023-04-07T08:54:59;100788.26;;;21.07;32.59
66396;BME280;53207;51.378;-1.342;2023-04-07T08:57:28;100790.59;;;21.32;32.55
66396;BME280;53207;51.378;-1.342;2023-04-07T08:59:58;100788.13;;;21.34;32.46
66396;BME280;53207;51.378;-1.342;2023-04-07T09:02:25;100784.47;;;21.35;32.44
66396;BME280;53207;51.378;-1.342;2023-04-07T09:04:52;100785.55;;;21.35;32.41
66396;BME280;53207;51.378;-1.342;2023-04-07T09:07:20;100786.25;;;21.33;32.43
66396;BME280;53207;51.378;-1.342;2023-04-07T09:09:47;100785.10;;;21.31;32.41
66396;BME280;53207;51.378;-1.342;2023-04-07T09:12:14;100787.41;;;21.37;32.35
66396;BME280;53207;51.378;-1.342;2023-04-07T09:14:41;100789.52;;;21.39;32.30
66396;BME280;53207;51.378;-1.342;2023-04-07T09:17:09;100789.90;;;21.59;32.33
66396;BME280;53207;51.378;-1.342;2023-04-07T09:19:36;100791.20;;;21.09;32.31
66396;BME280;53207;51.378;-1.342;2023-04-07T09:22:03;100791.69;;;21.36;32.26
66396;BME280;53207;51.378;-1.342;2023-04-07T09:24:31;100788.46;;;21.38;32.18
66396;BME280;53207;51.378;-1.342;2023-04-07T09:27:09;100788.26;;;21.36;32.24
66396;BME280;53207;51.378;-1.342;2023-04-07T09:29:36;100784.61;;;21.36;32.20
66396;BME280;53207;51.378;-1.342;2023-04-07T09:32:03;100783.45;;;21.34;32.23
66396;BME280;53207;51.378;-1.342;2023-04-07T09:34:33;100783.28;;;21.33;32.19
66396;BME280;53207;51.378;-1.342;2023-04-07T09:37:02;100781.31;;;21.08;32.17
66396;BME280;53207;51.378;-1.342;2023-04-07T09:39:30;100782.16;;;21.34;32.17
66396;BME280;53207;51.378;-1.342;2023-04-07T09:41:58;100781.51;;;21.33;32.18
66396;BME280;53207;51.378;-1.342;2023-04-07T09:44:25;100777.80;;;21.34;32.16
66396;BME280;53207;51.378;-1.342;2023-04-07T09:46:53;100778.49;;;21.38;32.12
66396;BME280;53207;51.378;-1.342;2023-04-07T09:49:20;100778.33;;;21.57;32.15
66396;BME280;53207;51.378;-1.342;2023-04-07T09:51:57;100779.58;;;21.36;32.16
66396;BME280;53207;51.378;-1.342;2023-04-07T09:54:33;100779.55;;;21.37;32.15
66396;BME280;53207;51.378;-1.342;2023-04-07T09:57:01;100778.08;;;21.36;32.19
66396;BME280;53207;51.378;-1.342;2023-04-07T09:59:30;100778.55;;;21.37;32.17
66396;BME280;53207;51.378;-1.342;2023-04-07T10:01:58;100777.14;;;21.39;32.19
66396;BME280;53207;51.378;-1.342;2023-04-07T10:04:26;100782.10;;;21.35;32.26
66396;BME280;53207;51.378;-1.342;2023-04-07T10:06:55;100782.84;;;21.38;32.25
66396;BME280;53207;51.378;-1.342;2023-04-07T10:09:23;100779.06;;;21.37;32.28
66396;BME280;53207;51.378;-1.342;2023-04-07T10:11:52;100781.58;;;21.34;32.27
66396;BME280;53207;51.378;-1.342;2023-04-07T10:14:21;100781.64;;;21.37;32.33
66396;BME280;53207;51.378;-1.342;2023-04-07T10:16:48;100778.52;;;21.13;31.68
66396;BME280;53207;51.378;-1.342;2023-04-07T10:19:15;100775.61;;;21.19;32.11
66396;BME280;53207;51.378;-1.342;2023-04-07T10:21:43;100778.83;;;21.10;31.89
66396;BME280;53207;51.378;-1.342;2023-04-07T10:24:24;100777.60;;;21.05;31.98
66396;BME280;53207;51.378;-1.342;2023-04-07T10:27:01;100776.47;;;21.09;32.12
66396;BME280;53207;51.378;-1.342;2023-04-07T10:29:34;100776.14;;;21.15;32.13
66396;BME280;53207;51.378;-1.342;2023-04-07T10:32:03;100779.63;;;20.62;31.80
66396;BME280;53207;51.378;-1.342;2023-04-07T10:35:02;100782.82;;;20.53;31.27
66396;BME280;53207;51.378;-1.342;2023-04-07T10:37:30;100781.64;;;20.66;30.88
66396;BME280;53207;51.378;-1.342;2023-04-07T10:40:29;100781.31;;;20.59;31.30
66396;BME280;53207;51.378;-1.342;2023-04-07T10:42:57;100774.18;;;20.97;31.73
66396;BME280;53207;51.378;-1.342;2023-04-07T10:45:57;100774.78;;;20.84;31.88
66396;BME280;53207;51.378;-1.342;2023-04-07T10:48:25;100777.73;;;20.71;31.49
66396;BME280;53207;51.378;-1.342;2023-04-07T10:51:12;100776.79;;;20.72;31.38
66396;BME280;53207;51.378;-1.342;2023-04-07T10:54:14;100774.37;;;20.75;31.31
66396;BME280;53207;51.378;-1.342;2023-04-07T10:57:14;100774.12;;;20.32;31.52
66396;BME280;53207;51.378;-1.342;2023-04-07T11:00:13;100772.54;;;21.17;31.46
66396;BME280;53207;51.378;-1.342;2023-04-07T11:02:41;100762.03;;;21.07;31.71
66396;BME280;53207;51.378;-1.342;2023-04-07T11:05:20;100762.28;;;20.87;31.87
66396;BME280;53207;51.378;-1.342;2023-04-07T11:07:51;100764.15;;;20.49;31.54
66396;BME280;53207;51.378;-1.342;2023-04-07T11:10:18;100765.20;;;20.63;31.35
66396;BME280;53207;51.378;-1.342;2023-04-07T11:12:58;100767.53;;;20.69;31.30
66396;BME280;53207;51.378;-1.342;2023-04-07T11:15:25;100767.06;;;20.68;31.31
66396;BME280;53207;51.378;-1.342;2023-04-07T11:18:24;100770.68;;;20.41;30.94
66396;BME280;53207;51.378;-1.342;2023-04-07T11:20:53;100764.43;;;20.62;31.14
66396;BME280;53207;51.378;-1.342;2023-04-07T11:23:22;100764.63;;;20.40;31.57
66396;BME280;53207;51.378;-1.342;2023-04-07T11:25:50;100760.79;;;21.04;31.73
66396;BME280;53207;51.378;-1.342;2023-04-07T11:28:18;100765.39;;;20.77;31.44
66396;BME280;53207;51.378;-1.342;2023-04-07T11:30:47;100767.20;;;20.69;31.36
66396;BME280;53207;51.378;-1.342;2023-04-07T11:33:16;100764.11;;;20.67;30.86
66396;BME280;53207;51.378;-1.342;2023-04-07T11:35:52;100765.70;;;20.62;31.23
66396;BME280;53207;51.378;-1.342;2023-04-07T11:38:20;100765.13;;;20.36;31.44
66396;BME280;53207;51.378;-1.342;2023-04-07T11:40:48;100764.45;;;20.96;31.69
66396;BME280;53207;51.378;-1.342;2023-04-07T11:43:18;100766.11;;;20.75;31.45
66396;BME280;53207;51.378;-1.342;2023-04-07T11:45:46;100763.44;;;20.33;31.19
66396;BME280;53207;51.378;-1.342;2023-04-07T11:48:30;100758.92;;;20.62;31.68
66396;BME280;53207;51.378;-1.342;2023-04-07T11:50:58;100753.99;;;20.94;31.51
66396;BME280;53207;51.378;-1.342;2023-04-07T11:53:27;100749.80;;;20.47;31.14
66396;BME280;53207;51.378;-1.342;2023-04-07T11:56:03;100749.71;;;20.77;31.86
66396;BME280;53207;51.378;-1.342;2023-04-07T11:58:32;100743.81;;;20.79;31.83
66396;BME280;53207;51.378;-1.342;2023-04-07T12:01:03;100747.97;;;20.70;31.15
66396;BME280;53207;51.378;-1.342;2023-04-07T12:03:31;100753.13;;;20.86;31.09
66396;BME280;53207;51.378;-1.342;2023-04-07T12:05:59;100752.11;;;20.99;31.55
66396;BME280;53207;51.378;-1.342;2023-04-07T12:08:42;100749.51;;;21.00;31.76
66396;BME280;53207;51.378;-1.342;2023-04-07T12:11:10;100749.46;;;20.83;31.43
66396;BME280;53207;51.378;-1.342;2023-04-07T12:13:37;100750.14;;;20.46;30.86
66396;BME280;53207;51.378;-1.342;2023-04-07T12:16:05;100750.86;;;20.86;30.92
66396;BME280;53207;51.378;-1.342;2023-04-07T12:18:32;100752.13;;;20.85;30.53
66396;BME280;53207;51.378;-1.342;2023-04-07T12:20:59;100750.09;;;20.58;30.97
66396;BME280;53207;51.378;-1.342;2023-04-07T12:23:27;100752.09;;;20.76;30.78
66396;BME280;53207;51.378;-1.342;2023-04-07T12:25:54;100748.53;;;19.98;30.26
66396;BME280;53207;51.378;-1.342;2023-04-07T12:28:21;100751.36;;;20.41;30.36
66396;BME280;53207;51.378;-1.342;2023-04-07T12:30:48;100750.17;;;20.42;30.96
66396;BME280;53207;51.378;-1.342;2023-04-07T12:33:16;100752.33;;;20.28;30.55
66396;BME280;53207;51.378;-1.342;2023-04-07T12:35:43;100751.07;;;20.47;30.72
66396;BME280;53207;51.378;-1.342;2023-04-07T12:38:10;100748.63;;;20.63;30.87
66396;BME280;53207;51.378;-1.342;2023-04-07T12:40:38;100752.52;;;20.68;30.83
66396;BME280;53207;51.378;-1.342;2023-04-07T12:43:05;100751.52;;;20.40;30.76
66396;BME280;53207;51.378;-1.342;2023-04-07T12:45:32;100751.07;;;20.78;30.75
66396;BME280;53207;51.378;-1.342;2023-04-07T12:48:00;100752.31;;;20.56;30.88
66396;BME280;53207;51.378;-1.342;2023-04-07T12:50:27;100752.20;;;20.88;31.31